KGLR/GLR METAR and TAF weather

Enter ICAO airport designator
Station Type Date Time Source
KGLR METAR 2021/09/16 10:34 UTC NOAA

KGLR 161034Z AUTO 00000KT 1/4SM HZ VV002 12/09 A3015 RMK AO2 T01170089


Station Type Date Time Source
KGLR Decoded METAR 2021/09/16 10:34 UTC NOAA

GAYLORD REGIONAL AIRPORT, MI, United States (KGLR) 45-01N 84-41W 407M
Sep 16, 2021 - 06:34 AM EDT / 2021.09.16 1034 UTC
Wind: Calm:0
Visibility: 1/4 mile(s):0
Sky conditions: obscured
Weather: haze
Temperature: 53.1 F (11.7 C)
Dew Point: 48.0 F (8.9 C)
Relative Humidity: 82%
Pressure (altimeter): 30.15 in. Hg (1020 hPa)
ob: KGLR 161034Z AUTO 00000KT 1/4SM HZ VV002 12/09 A3015 RMK AO2 T01170089
cycle: 10

Station Type Date Time Source
KGLR TAF UTC NOAA

Error!

Example: see airport list